sensor_id;sensor_type;location;lat;lon;timestamp;P1;durP1;ratioP1;P2;durP2;ratioP2
25509;SDS011;13413;52.336;21.200;2022-12-18T00:02:01;52.30;;;26.30;;
25509;SDS011;13413;52.336;21.200;2022-12-18T00:05:20;51.50;;;26.20;;
25509;SDS011;13413;52.336;21.200;2022-12-18T00:08:40;48.30;;;26.10;;
25509;SDS011;13413;52.336;21.200;2022-12-18T00:11:59;48.20;;;26.90;;
25509;SDS011;13413;52.336;21.200;2022-12-18T00:15:19;54.40;;;28.30;;
25509;SDS011;13413;52.336;21.200;2022-12-18T00:18:39;58.40;;;28.90;;
25509;SDS011;13413;52.336;21.200;2022-12-18T00:21:59;61.10;;;27.80;;
25509;SDS011;13413;52.336;21.200;2022-12-18T00:25:18;57.10;;;27.60;;
25509;SDS011;13413;52.336;21.200;2022-12-18T00:28:38;54.70;;;28.20;;
25509;SDS011;13413;52.336;21.200;2022-12-18T00:31:57;55.20;;;26.70;;
25509;SDS011;13413;52.336;21.200;2022-12-18T00:38:48;51.60;;;26.50;;
25509;SDS011;13413;52.336;21.200;2022-12-18T00:42:07;52.30;;;27.60;;
25509;SDS011;13413;52.336;21.200;2022-12-18T00:45:28;48.70;;;25.50;;
25509;SDS011;13413;52.336;21.200;2022-12-18T00:48:48;55.40;;;27.60;;
25509;SDS011;13413;52.336;21.200;2022-12-18T00:52:07;54.70;;;25.90;;
25509;SDS011;13413;52.336;21.200;2022-12-18T00:55:25;51.40;;;25.20;;
25509;SDS011;13413;52.336;21.200;2022-12-18T01:08:00;54.80;;;29.70;;
25509;SDS011;13413;52.336;21.200;2022-12-18T01:11:22;50.90;;;27.40;;
25509;SDS011;13413;52.336;21.200;2022-12-18T01:14:59;54.20;;;26.30;;
25509;SDS011;13413;52.336;21.200;2022-12-18T01:18:18;55.50;;;27.70;;
25509;SDS011;13413;52.336;21.200;2022-12-18T01:21:37;55.80;;;27.80;;
25509;SDS011;13413;52.336;21.200;2022-12-18T01:24:57;52.90;;;27.40;;
25509;SDS011;13413;52.336;21.200;2022-12-18T01:28:16;54.00;;;27.20;;
25509;SDS011;13413;52.336;21.200;2022-12-18T01:31:35;50.40;;;26.70;;
25509;SDS011;13413;52.336;21.200;2022-12-18T01:34:54;57.20;;;27.90;;
25509;SDS011;13413;52.336;21.200;2022-12-18T01:38:12;54.80;;;28.50;;
25509;SDS011;13413;52.336;21.200;2022-12-18T01:41:32;51.20;;;26.40;;
25509;SDS011;13413;52.336;21.200;2022-12-18T01:44:58;56.90;;;27.50;;
25509;SDS011;13413;52.336;21.200;2022-12-18T01:48:20;56.80;;;28.20;;
25509;SDS011;13413;52.336;21.200;2022-12-18T01:51:40;55.80;;;28.40;;
25509;SDS011;13413;52.336;21.200;2022-12-18T01:55:01;59.20;;;30.70;;
25509;SDS011;13413;52.336;21.200;2022-12-18T01:58:24;61.80;;;29.00;;
25509;SDS011;13413;52.336;21.200;2022-12-18T02:01:49;51.80;;;26.20;;
25509;SDS011;13413;52.336;21.200;2022-12-18T02:05:10;51.90;;;27.10;;
25509;SDS011;13413;52.336;21.200;2022-12-18T02:12:21;56.10;;;28.50;;
25509;SDS011;13413;52.336;21.200;2022-12-18T02:15:43;52.40;;;26.20;;
25509;SDS011;13413;52.336;21.200;2022-12-18T02:19:11;51.10;;;25.80;;
25509;SDS011;13413;52.336;21.200;2022-12-18T02:22:42;50.60;;;26.40;;
25509;SDS011;13413;52.336;21.200;2022-12-18T02:26:18;49.40;;;25.10;;
25509;SDS011;13413;52.336;21.200;2022-12-18T02:29:44;49.50;;;24.80;;
25509;SDS011;13413;52.336;21.200;2022-12-18T02:33:08;57.30;;;27.10;;
25509;SDS011;13413;52.336;21.200;2022-12-18T02:36:31;52.30;;;25.00;;
25509;SDS011;13413;52.336;21.200;2022-12-18T02:39:53;44.80;;;23.00;;
25509;SDS011;13413;52.336;21.200;2022-12-18T02:43:15;49.90;;;25.90;;
25509;SDS011;13413;52.336;21.200;2022-12-18T02:46:36;49.30;;;25.90;;
25509;SDS011;13413;52.336;21.200;2022-12-18T02:50:01;49.70;;;24.80;;
25509;SDS011;13413;52.336;21.200;2022-12-18T02:53:26;51.00;;;27.10;;
25509;SDS011;13413;52.336;21.200;2022-12-18T02:56:51;52.50;;;26.30;;
25509;SDS011;13413;52.336;21.200;2022-12-18T03:00:16;50.50;;;25.90;;
25509;SDS011;13413;52.336;21.200;2022-12-18T03:03:40;48.30;;;24.00;;
25509;SDS011;13413;52.336;21.200;2022-12-18T03:07:05;56.30;;;27.40;;
25509;SDS011;13413;52.336;21.200;2022-12-18T03:10:33;45.90;;;24.90;;
25509;SDS011;13413;52.336;21.200;2022-12-18T03:13:57;51.20;;;25.60;;
25509;SDS011;13413;52.336;21.200;2022-12-18T03:29:56;45.60;;;26.20;;
25509;SDS011;13413;52.336;21.200;2022-12-18T03:33:21;46.60;;;25.20;;
25509;SDS011;13413;52.336;21.200;2022-12-18T03:36:44;49.50;;;25.60;;
25509;SDS011;13413;52.336;21.200;2022-12-18T03:40:05;48.80;;;27.50;;
25509;SDS011;13413;52.336;21.200;2022-12-18T03:43:28;58.40;;;29.10;;
25509;SDS011;13413;52.336;21.200;2022-12-18T03:46:57;52.90;;;27.10;;
25509;SDS011;13413;52.336;21.200;2022-12-18T03:50:25;53.60;;;26.10;;
25509;SDS011;13413;52.336;21.200;2022-12-18T03:53:50;54.60;;;26.00;;
25509;SDS011;13413;52.336;21.200;2022-12-18T03:57:16;55.50;;;27.80;;
25509;SDS011;13413;52.336;21.200;2022-12-18T04:00:39;51.20;;;24.10;;
25509;SDS011;13413;52.336;21.200;2022-12-18T04:03:59;52.80;;;25.70;;
25509;SDS011;13413;52.336;21.200;2022-12-18T04:07:19;49.50;;;26.20;;
25509;SDS011;13413;52.336;21.200;2022-12-18T04:10:40;53.00;;;26.90;;
25509;SDS011;13413;52.336;21.200;2022-12-18T04:14:00;55.70;;;28.50;;
25509;SDS011;13413;52.336;21.200;2022-12-18T04:17:20;50.40;;;26.20;;
25509;SDS011;13413;52.336;21.200;2022-12-18T04:20:40;46.50;;;25.20;;
25509;SDS011;13413;52.336;21.200;2022-12-18T04:24:00;49.00;;;26.70;;
25509;SDS011;13413;52.336;21.200;2022-12-18T04:27:20;44.20;;;24.00;;
25509;SDS011;13413;52.336;21.200;2022-12-18T04:30:39;42.60;;;21.60;;
25509;SDS011;13413;52.336;21.200;2022-12-18T04:34:01;40.00;;;21.00;;
25509;SDS011;13413;52.336;21.200;2022-12-18T04:37:21;38.60;;;20.10;;
25509;SDS011;13413;52.336;21.200;2022-12-18T04:40:41;39.50;;;21.00;;
25509;SDS011;13413;52.336;21.200;2022-12-18T04:44:03;38.60;;;21.30;;
25509;SDS011;13413;52.336;21.200;2022-12-18T04:47:22;38.40;;;21.40;;
25509;SDS011;13413;52.336;21.200;2022-12-18T04:50:42;40.30;;;20.80;;
25509;SDS011;13413;52.336;21.200;2022-12-18T04:54:01;36.70;;;20.50;;
25509;SDS011;13413;52.336;21.200;2022-12-18T04:57:34;35.90;;;20.10;;
25509;SDS011;13413;52.336;21.200;2022-12-18T05:00:54;38.20;;;20.30;;
25509;SDS011;13413;52.336;21.200;2022-12-18T05:04:13;37.70;;;20.90;;
25509;SDS011;13413;52.336;21.200;2022-12-18T05:07:33;39.40;;;21.20;;
25509;SDS011;13413;52.336;21.200;2022-12-18T05:10:59;33.80;;;18.50;;
25509;SDS011;13413;52.336;21.200;2022-12-18T05:14:18;33.10;;;18.40;;
25509;SDS011;13413;52.336;21.200;2022-12-18T05:17:36;40.60;;;19.50;;
25509;SDS011;13413;52.336;21.200;2022-12-18T05:20:56;34.60;;;18.50;;
25509;SDS011;13413;52.336;21.200;2022-12-18T05:24:15;34.00;;;20.00;;
25509;SDS011;13413;52.336;21.200;2022-12-18T05:27:35;41.70;;;21.60;;
25509;SDS011;13413;52.336;21.200;2022-12-18T05:30:55;41.70;;;22.40;;
25509;SDS011;13413;52.336;21.200;2022-12-18T05:34:16;38.00;;;21.10;;
25509;SDS011;13413;52.336;21.200;2022-12-18T05:37:36;34.40;;;20.10;;
25509;SDS011;13413;52.336;21.200;2022-12-18T05:50:10;38.30;;;21.60;;
25509;SDS011;13413;52.336;21.200;2022-12-18T05:53:30;36.50;;;19.80;;
25509;SDS011;13413;52.336;21.200;2022-12-18T05:56:49;33.40;;;19.70;;
25509;SDS011;13413;52.336;21.200;2022-12-18T06:00:09;35.50;;;19.00;;
25509;SDS011;13413;52.336;21.200;2022-12-18T06:03:30;37.70;;;20.70;;
25509;SDS011;13413;52.336;21.200;2022-12-18T06:06:49;36.90;;;19.70;;
25509;SDS011;13413;52.336;21.200;2022-12-18T06:10:10;37.00;;;19.90;;
25509;SDS011;13413;52.336;21.200;2022-12-18T06:13:29;34.80;;;21.20;;
25509;SDS011;13413;52.336;21.200;2022-12-18T06:16:51;34.90;;;19.20;;
25509;SDS011;13413;52.336;21.200;2022-12-18T06:20:11;35.50;;;19.40;;
25509;SDS011;13413;52.336;21.200;2022-12-18T06:23:31;35.10;;;19.30;;
25509;SDS011;13413;52.336;21.200;2022-12-18T06:26:50;33.30;;;18.80;;
25509;SDS011;13413;52.336;21.200;2022-12-18T06:30:11;36.80;;;19.90;;
25509;SDS011;13413;52.336;21.200;2022-12-18T06:33:33;40.60;;;19.80;;
25509;SDS011;13413;52.336;21.200;2022-12-18T06:36:52;34.90;;;19.10;;
25509;SDS011;13413;52.336;21.200;2022-12-18T06:40:14;34.80;;;19.40;;
25509;SDS011;13413;52.336;21.200;2022-12-18T06:43:33;36.90;;;19.60;;
25509;SDS011;13413;52.336;21.200;2022-12-18T06:46:53;41.70;;;21.60;;
25509;SDS011;13413;52.336;21.200;2022-12-18T06:50:13;45.10;;;24.00;;
25509;SDS011;13413;52.336;21.200;2022-12-18T06:53:33;45.20;;;25.10;;
25509;SDS011;13413;52.336;21.200;2022-12-18T06:56:52;57.20;;;26.70;;
25509;SDS011;13413;52.336;21.200;2022-12-18T07:00:15;39.70;;;20.70;;
25509;SDS011;13413;52.336;21.200;2022-12-18T07:03:34;42.30;;;21.20;;
25509;SDS011;13413;52.336;21.200;2022-12-18T07:06:55;35.70;;;18.50;;
25509;SDS011;13413;52.336;21.200;2022-12-18T07:10:14;33.60;;;18.30;;
25509;SDS011;13413;52.336;21.200;2022-12-18T07:13:34;34.60;;;18.50;;
25509;SDS011;13413;52.336;21.200;2022-12-18T07:16:54;37.70;;;19.30;;
25509;SDS011;13413;52.336;21.200;2022-12-18T07:20:13;34.80;;;18.40;;
25509;SDS011;13413;52.336;21.200;2022-12-18T07:23:34;42.00;;;21.70;;
25509;SDS011;13413;52.336;21.200;2022-12-18T07:27:12;37.20;;;19.90;;
25509;SDS011;13413;52.336;21.200;2022-12-18T07:33:50;38.20;;;19.20;;
25509;SDS011;13413;52.336;21.200;2022-12-18T07:37:09;42.70;;;23.40;;
25509;SDS011;13413;52.336;21.200;2022-12-18T07:40:30;37.40;;;20.50;;
25509;SDS011;13413;52.336;21.200;2022-12-18T07:44:01;49.50;;;23.30;;
25509;SDS011;13413;52.336;21.200;2022-12-18T07:47:20;51.30;;;28.70;;
25509;SDS011;13413;52.336;21.200;2022-12-18T07:50:40;48.90;;;24.20;;
25509;SDS011;13413;52.336;21.200;2022-12-18T07:53:59;46.00;;;23.40;;
25509;SDS011;13413;52.336;21.200;2022-12-18T07:57:18;49.10;;;26.10;;
25509;SDS011;13413;52.336;21.200;2022-12-18T08:00:39;29.60;;;23.70;;
25509;SDS011;13413;52.336;21.200;2022-12-18T08:09:55;43.70;;;23.40;;
25509;SDS011;13413;52.336;21.200;2022-12-18T08:13:15;38.00;;;20.00;;
25509;SDS011;13413;52.336;21.200;2022-12-18T08:16:35;53.40;;;28.20;;
25509;SDS011;13413;52.336;21.200;2022-12-18T08:20:16;60.60;;;28.10;;
25509;SDS011;13413;52.336;21.200;2022-12-18T08:23:35;57.90;;;30.80;;
25509;SDS011;13413;52.336;21.200;2022-12-18T08:26:54;58.00;;;29.40;;
25509;SDS011;13413;52.336;21.200;2022-12-18T08:30:25;64.60;;;32.40;;
25509;SDS011;13413;52.336;21.200;2022-12-18T08:33:44;58.20;;;28.90;;
25509;SDS011;13413;52.336;21.200;2022-12-18T08:37:05;54.80;;;28.20;;
25509;SDS011;13413;52.336;21.200;2022-12-18T08:40:25;51.20;;;24.80;;
25509;SDS011;13413;52.336;21.200;2022-12-18T08:43:45;57.80;;;27.50;;
25509;SDS011;13413;52.336;21.200;2022-12-18T08:47:05;71.20;;;35.60;;
25509;SDS011;13413;52.336;21.200;2022-12-18T08:50:26;67.40;;;32.90;;
25509;SDS011;13413;52.336;21.200;2022-12-18T08:53:48;67.00;;;30.80;;
25509;SDS011;13413;52.336;21.200;2022-12-18T08:57:07;69.60;;;34.00;;
25509;SDS011;13413;52.336;21.200;2022-12-18T09:00:27;60.20;;;31.10;;
25509;SDS011;13413;52.336;21.200;2022-12-18T09:03:49;72.70;;;32.50;;
25509;SDS011;13413;52.336;21.200;2022-12-18T09:07:09;75.20;;;34.40;;
25509;SDS011;13413;52.336;21.200;2022-12-18T09:10:28;92.00;;;42.20;;
25509;SDS011;13413;52.336;21.200;2022-12-18T09:13:48;91.40;;;39.70;;
25509;SDS011;13413;52.336;21.200;2022-12-18T09:17:09;75.60;;;34.70;;
25509;SDS011;13413;52.336;21.200;2022-12-18T09:20:29;78.40;;;35.80;;
25509;SDS011;13413;52.336;21.200;2022-12-18T09:23:50;75.50;;;36.40;;
25509;SDS011;13413;52.336;21.200;2022-12-18T09:27:10;103.50;;;45.70;;
25509;SDS011;13413;52.336;21.200;2022-12-18T09:30:30;107.00;;;46.50;;
25509;SDS011;13413;52.336;21.200;2022-12-18T09:33:50;98.60;;;43.60;;
25509;SDS011;13413;52.336;21.200;2022-12-18T09:37:29;111.40;;;45.60;;
25509;SDS011;13413;52.336;21.200;2022-12-18T09:40:50;126.10;;;54.40;;
25509;SDS011;13413;52.336;21.200;2022-12-18T09:44:24;107.60;;;47.70;;
25509;SDS011;13413;52.336;21.200;2022-12-18T09:47:46;115.80;;;54.10;;
25509;SDS011;13413;52.336;21.200;2022-12-18T09:51:11;109.90;;;49.40;;
25509;SDS011;13413;52.336;21.200;2022-12-18T09:54:33;110.20;;;46.60;;
25509;SDS011;13413;52.336;21.200;2022-12-18T10:01:34;94.90;;;44.50;;
25509;SDS011;13413;52.336;21.200;2022-12-18T10:05:10;105.30;;;44.50;;
25509;SDS011;13413;52.336;21.200;2022-12-18T10:08:35;83.60;;;39.40;;
25509;SDS011;13413;52.336;21.200;2022-12-18T10:12:04;108.00;;;44.30;;
25509;SDS011;13413;52.336;21.200;2022-12-18T10:15:34;96.90;;;42.40;;
25509;SDS011;13413;52.336;21.200;2022-12-18T10:19:00;102.30;;;42.60;;
25509;SDS011;13413;52.336;21.200;2022-12-18T10:25:13;101.20;;;43.60;;
25509;SDS011;13413;52.336;21.200;2022-12-18T10:28:39;89.10;;;37.90;;
25509;SDS011;13413;52.336;21.200;2022-12-18T10:32:00;103.50;;;43.00;;
25509;SDS011;13413;52.336;21.200;2022-12-18T10:35:19;117.60;;;50.10;;
25509;SDS011;13413;52.336;21.200;2022-12-18T10:38:40;99.30;;;44.40;;
25509;SDS011;13413;52.336;21.200;2022-12-18T10:42:09;96.60;;;46.20;;
25509;SDS011;13413;52.336;21.200;2022-12-18T10:45:34;100.20;;;40.50;;
25509;SDS011;13413;52.336;21.200;2022-12-18T10:48:54;95.10;;;43.70;;
25509;SDS011;13413;52.336;21.200;2022-12-18T10:52:17;102.80;;;49.30;;
25509;SDS011;13413;52.336;21.200;2022-12-18T10:55:39;107.60;;;51.70;;
25509;SDS011;13413;52.336;21.200;2022-12-18T10:59:03;145.90;;;64.10;;
25509;SDS011;13413;52.336;21.200;2022-12-18T11:02:44;94.10;;;40.50;;
25509;SDS011;13413;52.336;21.200;2022-12-18T11:06:06;75.20;;;34.40;;
25509;SDS011;13413;52.336;21.200;2022-12-18T11:09:39;75.80;;;35.00;;
25509;SDS011;13413;52.336;21.200;2022-12-18T11:13:10;85.90;;;37.30;;
25509;SDS011;13413;52.336;21.200;2022-12-18T11:16:35;85.20;;;38.60;;
25509;SDS011;13413;52.336;21.200;2022-12-18T11:20:03;92.30;;;41.00;;
25509;SDS011;13413;52.336;21.200;2022-12-18T11:23:24;80.20;;;35.30;;
25509;SDS011;13413;52.336;21.200;2022-12-18T11:26:44;89.60;;;40.30;;
25509;SDS011;13413;52.336;21.200;2022-12-18T11:30:09;87.60;;;39.10;;
25509;SDS011;13413;52.336;21.200;2022-12-18T11:33:39;80.90;;;38.50;;
25509;SDS011;13413;52.336;21.200;2022-12-18T11:37:02;87.00;;;41.30;;
25509;SDS011;13413;52.336;21.200;2022-12-18T11:40:22;83.40;;;38.20;;
25509;SDS011;13413;52.336;21.200;2022-12-18T11:43:50;83.00;;;40.80;;
25509;SDS011;13413;52.336;21.200;2022-12-18T11:47:21;89.70;;;43.60;;
25509;SDS011;13413;52.336;21.200;2022-12-18T11:50:49;92.70;;;41.50;;
25509;SDS011;13413;52.336;21.200;2022-12-18T11:54:11;81.10;;;38.30;;
25509;SDS011;13413;52.336;21.200;2022-12-18T11:57:36;84.70;;;41.30;;
25509;SDS011;13413;52.336;21.200;2022-12-18T12:01:02;89.50;;;42.40;;
25509;SDS011;13413;52.336;21.200;2022-12-18T12:04:40;89.80;;;43.00;;
25509;SDS011;13413;52.336;21.200;2022-12-18T12:08:09;93.70;;;46.10;;
25509;SDS011;13413;52.336;21.200;2022-12-18T12:11:42;118.20;;;54.70;;
25509;SDS011;13413;52.336;21.200;2022-12-18T12:15:10;107.50;;;48.40;;
25509;SDS011;13413;52.336;21.200;2022-12-18T12:18:43;108.70;;;47.70;;
25509;SDS011;13413;52.336;21.200;2022-12-18T12:22:18;94.30;;;42.90;;
25509;SDS011;13413;52.336;21.200;2022-12-18T12:25:44;115.10;;;55.30;;
25509;SDS011;13413;52.336;21.200;2022-12-18T12:29:13;108.40;;;51.60;;
25509;SDS011;13413;52.336;21.200;2022-12-18T12:32:49;87.00;;;45.70;;
25509;SDS011;13413;52.336;21.200;2022-12-18T12:45:39;101.70;;;49.90;;
25509;SDS011;13413;52.336;21.200;2022-12-18T12:49:08;96.50;;;43.80;;
25509;SDS011;13413;52.336;21.200;2022-12-18T12:52:33;99.70;;;47.10;;
25509;SDS011;13413;52.336;21.200;2022-12-18T12:55:57;87.80;;;45.20;;
25509;SDS011;13413;52.336;21.200;2022-12-18T12:59:22;95.40;;;43.50;;
25509;SDS011;13413;52.336;21.200;2022-12-18T13:02:47;112.10;;;47.30;;
25509;SDS011;13413;52.336;21.200;2022-12-18T13:06:18;88.80;;;44.30;;
25509;SDS011;13413;52.336;21.200;2022-12-18T13:13:50;100.00;;;45.50;;
25509;SDS011;13413;52.336;21.200;2022-12-18T13:20:50;103.20;;;45.60;;
25509;SDS011;13413;52.336;21.200;2022-12-18T13:24:23;104.90;;;48.70;;
25509;SDS011;13413;52.336;21.200;2022-12-18T13:27:50;114.10;;;49.70;;
25509;SDS011;13413;52.336;21.200;2022-12-18T13:35:39;103.80;;;44.40;;
25509;SDS011;13413;52.336;21.200;2022-12-18T13:42:51;97.20;;;48.20;;
25509;SDS011;13413;52.336;21.200;2022-12-18T13:46:22;123.20;;;58.20;;
25509;SDS011;13413;52.336;21.200;2022-12-18T13:49:45;125.40;;;56.90;;
25509;SDS011;13413;52.336;21.200;2022-12-18T13:53:06;134.70;;;58.80;;
25509;SDS011;13413;52.336;21.200;2022-12-18T13:56:33;117.70;;;51.90;;
25509;SDS011;13413;52.336;21.200;2022-12-18T14:00:14;111.90;;;52.90;;
25509;SDS011;13413;52.336;21.200;2022-12-18T14:03:47;103.50;;;49.20;;
25509;SDS011;13413;52.336;21.200;2022-12-18T14:07:26;106.00;;;49.60;;
25509;SDS011;13413;52.336;21.200;2022-12-18T14:10:47;115.40;;;53.90;;
25509;SDS011;13413;52.336;21.200;2022-12-18T14:14:08;128.40;;;55.20;;
25509;SDS011;13413;52.336;21.200;2022-12-18T14:17:32;121.60;;;54.60;;
25509;SDS011;13413;52.336;21.200;2022-12-18T14:20:53;117.80;;;50.90;;
25509;SDS011;13413;52.336;21.200;2022-12-18T14:24:16;115.80;;;50.70;;
25509;SDS011;13413;52.336;21.200;2022-12-18T14:27:41;147.10;;;69.30;;
25509;SDS011;13413;52.336;21.200;2022-12-18T14:31:02;120.70;;;56.00;;
25509;SDS011;13413;52.336;21.200;2022-12-18T14:34:21;122.40;;;56.90;;
25509;SDS011;13413;52.336;21.200;2022-12-18T14:37:45;173.80;;;73.70;;
25509;SDS011;13413;52.336;21.200;2022-12-18T14:41:05;154.90;;;68.20;;
25509;SDS011;13413;52.336;21.200;2022-12-18T14:44:27;150.40;;;63.60;;
25509;SDS011;13413;52.336;21.200;2022-12-18T14:47:46;144.20;;;63.50;;
25509;SDS011;13413;52.336;21.200;2022-12-18T14:51:18;171.90;;;74.80;;
25509;SDS011;13413;52.336;21.200;2022-12-18T15:06:18;135.90;;;58.80;;
25509;SDS011;13413;52.336;21.200;2022-12-18T15:10:00;135.50;;;57.90;;
25509;SDS011;13413;52.336;21.200;2022-12-18T15:13:23;142.50;;;62.60;;
25509;SDS011;13413;52.336;21.200;2022-12-18T15:16:42;147.00;;;60.00;;
25509;SDS011;13413;52.336;21.200;2022-12-18T15:20:03;134.40;;;59.30;;
25509;SDS011;13413;52.336;21.200;2022-12-18T15:23:29;146.40;;;68.10;;
25509;SDS011;13413;52.336;21.200;2022-12-18T15:26:52;140.90;;;60.10;;
25509;SDS011;13413;52.336;21.200;2022-12-18T15:30:22;136.70;;;61.40;;
25509;SDS011;13413;52.336;21.200;2022-12-18T15:33:43;137.00;;;60.30;;
25509;SDS011;13413;52.336;21.200;2022-12-18T15:37:18;133.10;;;56.70;;
25509;SDS011;13413;52.336;21.200;2022-12-18T15:40:37;134.30;;;58.50;;
25509;SDS011;13413;52.336;21.200;2022-12-18T15:43:56;138.10;;;60.40;;
25509;SDS011;13413;52.336;21.200;2022-12-18T15:47:16;139.90;;;60.00;;
25509;SDS011;13413;52.336;21.200;2022-12-18T15:50:35;135.50;;;61.20;;
25509;SDS011;13413;52.336;21.200;2022-12-18T15:53:56;130.20;;;60.20;;
25509;SDS011;13413;52.336;21.200;2022-12-18T15:57:16;142.00;;;59.40;;
25509;SDS011;13413;52.336;21.200;2022-12-18T16:00:36;121.30;;;52.30;;
25509;SDS011;13413;52.336;21.200;2022-12-18T16:03:58;126.10;;;54.20;;
25509;SDS011;13413;52.336;21.200;2022-12-18T16:07:18;130.30;;;55.50;;
25509;SDS011;13413;52.336;21.200;2022-12-18T16:10:37;140.80;;;59.10;;
25509;SDS011;13413;52.336;21.200;2022-12-18T16:13:57;129.30;;;56.00;;
25509;SDS011;13413;52.336;21.200;2022-12-18T16:17:17;150.70;;;64.90;;
25509;SDS011;13413;52.336;21.200;2022-12-18T16:20:38;153.40;;;64.90;;
25509;SDS011;13413;52.336;21.200;2022-12-18T16:23:59;124.00;;;54.80;;
25509;SDS011;13413;52.336;21.200;2022-12-18T16:27:18;103.00;;;43.30;;
25509;SDS011;13413;52.336;21.200;2022-12-18T16:30:38;112.80;;;46.10;;
25509;SDS011;13413;52.336;21.200;2022-12-18T16:34:12;112.10;;;50.10;;
25509;SDS011;13413;52.336;21.200;2022-12-18T16:40:54;96.50;;;38.40;;
25509;SDS011;13413;52.336;21.200;2022-12-18T16:44:14;99.80;;;47.00;;
25509;SDS011;13413;52.336;21.200;2022-12-18T16:47:34;111.70;;;48.70;;
25509;SDS011;13413;52.336;21.200;2022-12-18T16:50:57;104.10;;;44.80;;
25509;SDS011;13413;52.336;21.200;2022-12-18T16:54:20;103.40;;;45.70;;
25509;SDS011;13413;52.336;21.200;2022-12-18T16:57:40;128.30;;;55.20;;
25509;SDS011;13413;52.336;21.200;2022-12-18T17:01:00;112.70;;;46.10;;
25509;SDS011;13413;52.336;21.200;2022-12-18T17:04:23;134.50;;;63.00;;
25509;SDS011;13413;52.336;21.200;2022-12-18T17:07:43;131.30;;;62.90;;
25509;SDS011;13413;52.336;21.200;2022-12-18T17:11:06;107.00;;;46.00;;
25509;SDS011;13413;52.336;21.200;2022-12-18T17:14:26;106.50;;;46.20;;
25509;SDS011;13413;52.336;21.200;2022-12-18T17:17:46;123.00;;;52.10;;
25509;SDS011;13413;52.336;21.200;2022-12-18T17:27:06;113.70;;;50.10;;
25509;SDS011;13413;52.336;21.200;2022-12-18T17:30:24;95.90;;;40.30;;
25509;SDS011;13413;52.336;21.200;2022-12-18T17:33:45;85.00;;;37.90;;
25509;SDS011;13413;52.336;21.200;2022-12-18T17:37:04;83.50;;;37.40;;
25509;SDS011;13413;52.336;21.200;2022-12-18T17:40:25;88.50;;;37.20;;
25509;SDS011;13413;52.336;21.200;2022-12-18T17:43:45;105.50;;;44.30;;
25509;SDS011;13413;52.336;21.200;2022-12-18T17:47:08;106.10;;;46.40;;
25509;SDS011;13413;52.336;21.200;2022-12-18T17:50:31;110.60;;;46.90;;
25509;SDS011;13413;52.336;21.200;2022-12-18T17:53:52;99.20;;;42.80;;
25509;SDS011;13413;52.336;21.200;2022-12-18T17:57:11;84.70;;;38.90;;
25509;SDS011;13413;52.336;21.200;2022-12-18T18:00:31;93.40;;;42.40;;
25509;SDS011;13413;52.336;21.200;2022-12-18T18:03:51;102.10;;;44.10;;
25509;SDS011;13413;52.336;21.200;2022-12-18T18:07:11;111.50;;;47.20;;
25509;SDS011;13413;52.336;21.200;2022-12-18T18:10:34;98.30;;;38.20;;
25509;SDS011;13413;52.336;21.200;2022-12-18T18:13:54;109.20;;;46.80;;
25509;SDS011;13413;52.336;21.200;2022-12-18T18:17:13;105.50;;;45.60;;
25509;SDS011;13413;52.336;21.200;2022-12-18T18:20:33;96.30;;;43.40;;
25509;SDS011;13413;52.336;21.200;2022-12-18T18:23:59;51.40;;;18.90;;
25509;SDS011;13413;52.336;21.200;2022-12-18T18:27:19;73.30;;;30.90;;
25509;SDS011;13413;52.336;21.200;2022-12-18T18:30:38;75.70;;;31.90;;
25509;SDS011;13413;52.336;21.200;2022-12-18T18:33:57;84.20;;;37.60;;
25509;SDS011;13413;52.336;21.200;2022-12-18T18:37:18;55.70;;;23.80;;
25509;SDS011;13413;52.336;21.200;2022-12-18T18:40:38;76.30;;;28.80;;
25509;SDS011;13413;52.336;21.200;2022-12-18T18:43:57;60.40;;;28.10;;
25509;SDS011;13413;52.336;21.200;2022-12-18T18:47:17;65.40;;;27.00;;
25509;SDS011;13413;52.336;21.200;2022-12-18T18:50:37;73.60;;;28.40;;
25509;SDS011;13413;52.336;21.200;2022-12-18T18:53:57;72.30;;;32.70;;
25509;SDS011;13413;52.336;21.200;2022-12-18T18:57:16;77.60;;;34.20;;
25509;SDS011;13413;52.336;21.200;2022-12-18T19:00:35;86.70;;;37.20;;
25509;SDS011;13413;52.336;21.200;2022-12-18T19:03:56;86.70;;;32.90;;
25509;SDS011;13413;52.336;21.200;2022-12-18T19:07:15;72.30;;;30.20;;
25509;SDS011;13413;52.336;21.200;2022-12-18T19:10:39;70.40;;;28.00;;
25509;SDS011;13413;52.336;21.200;2022-12-18T19:13:59;91.60;;;40.30;;
25509;SDS011;13413;52.336;21.200;2022-12-18T19:17:21;106.60;;;44.00;;
25509;SDS011;13413;52.336;21.200;2022-12-18T19:20:40;67.00;;;28.50;;
25509;SDS011;13413;52.336;21.200;2022-12-18T19:24:00;69.20;;;26.90;;
25509;SDS011;13413;52.336;21.200;2022-12-18T19:27:21;90.90;;;41.00;;
25509;SDS011;13413;52.336;21.200;2022-12-18T19:30:40;78.00;;;36.70;;
25509;SDS011;13413;52.336;21.200;2022-12-18T19:34:01;82.80;;;36.40;;
25509;SDS011;13413;52.336;21.200;2022-12-18T19:37:20;20.40;;;52.00;;
25509;SDS011;13413;52.336;21.200;2022-12-18T19:46:37;54.20;;;21.40;;
25509;SDS011;13413;52.336;21.200;2022-12-18T19:49:57;124.70;;;43.90;;
25509;SDS011;13413;52.336;21.200;2022-12-18T19:53:16;59.80;;;20.40;;
25509;SDS011;13413;52.336;21.200;2022-12-18T19:56:36;125.20;;;47.40;;
25509;SDS011;13413;52.336;21.200;2022-12-18T19:59:55;97.00;;;38.30;;
25509;SDS011;13413;52.336;21.200;2022-12-18T20:03:15;116.40;;;47.90;;
25509;SDS011;13413;52.336;21.200;2022-12-18T20:06:35;97.20;;;40.90;;
25509;SDS011;13413;52.336;21.200;2022-12-18T20:10:04;82.80;;;34.40;;
25509;SDS011;13413;52.336;21.200;2022-12-18T20:13:29;99.70;;;39.70;;
25509;SDS011;13413;52.336;21.200;2022-12-18T20:16:47;99.80;;;35.10;;
25509;SDS011;13413;52.336;21.200;2022-12-18T20:20:09;92.90;;;30.00;;
25509;SDS011;13413;52.336;21.200;2022-12-18T20:23:28;48.80;;;18.70;;
25509;SDS011;13413;52.336;21.200;2022-12-18T20:26:49;159.70;;;52.80;;
25509;SDS011;13413;52.336;21.200;2022-12-18T20:30:09;64.70;;;24.90;;
25509;SDS011;13413;52.336;21.200;2022-12-18T20:33:30;43.90;;;18.30;;
25509;SDS011;13413;52.336;21.200;2022-12-18T20:40:09;137.40;;;46.20;;
25509;SDS011;13413;52.336;21.200;2022-12-18T20:43:29;93.10;;;33.50;;
25509;SDS011;13413;52.336;21.200;2022-12-18T20:46:48;51.40;;;18.00;;
25509;SDS011;13413;52.336;21.200;2022-12-18T20:50:08;58.60;;;23.30;;
25509;SDS011;13413;52.336;21.200;2022-12-18T20:53:29;64.90;;;28.00;;
25509;SDS011;13413;52.336;21.200;2022-12-18T20:56:49;59.60;;;26.00;;
25509;SDS011;13413;52.336;21.200;2022-12-18T21:00:09;40.20;;;17.10;;
25509;SDS011;13413;52.336;21.200;2022-12-18T21:03:31;74.60;;;29.30;;
25509;SDS011;13413;52.336;21.200;2022-12-18T21:06:55;71.20;;;32.00;;
25509;SDS011;13413;52.336;21.200;2022-12-18T21:10:15;83.90;;;32.10;;
25509;SDS011;13413;52.336;21.200;2022-12-18T21:13:35;49.20;;;19.20;;